createdAt,value
2023-04-28T00:01:41.788Z,100.00
2023-04-28T00:04:08.778Z,100.00
2023-04-28T00:06:35.728Z,100.00
2023-04-28T00:09:02.459Z,100.00
2023-04-28T00:11:29.375Z,100.00
2023-04-28T00:13:56.249Z,100.00
2023-04-28T00:16:23.122Z,100.00
2023-04-28T00:18:50.239Z,100.00
2023-04-28T00:21:17.979Z,100.00
2023-04-28T00:23:44.683Z,100.00
2023-04-28T00:26:12.444Z,100.00
2023-04-28T00:28:40.687Z,100.00
2023-04-28T00:31:12.548Z,100.00
2023-04-28T00:33:40.655Z,100.00
2023-04-28T00:36:07.850Z,100.00
2023-04-28T00:38:34.916Z,100.00
2023-04-28T00:41:01.716Z,100.00
2023-04-28T00:43:28.868Z,100.00
2023-04-28T00:45:56.200Z,100.00
2023-04-28T00:48:24.240Z,100.00
2023-04-28T00:50:51.947Z,100.00
2023-04-28T00:53:18.665Z,100.00
2023-04-28T00:55:45.882Z,100.00
2023-04-28T00:58:12.612Z,100.00
2023-04-28T01:00:39.470Z,100.00
2023-04-28T01:03:06.432Z,100.00
2023-04-28T01:05:35.076Z,100.00
2023-04-28T01:08:01.718Z,100.00
2023-04-28T01:10:28.453Z,100.00
2023-04-28T01:12:56.280Z,100.00
2023-04-28T01:15:23.010Z,100.00
2023-04-28T01:17:52.853Z,100.00
2023-04-28T01:20:19.684Z,100.00
2023-04-28T01:22:46.430Z,100.00
2023-04-28T01:25:13.737Z,100.00
2023-04-28T01:27:40.444Z,100.00
2023-04-28T01:30:08.698Z,100.00
2023-04-28T01:32:35.575Z,100.00
2023-04-28T01:35:02.927Z,100.00
2023-04-28T01:37:29.619Z,100.00
2023-04-28T01:39:56.295Z,100.00
2023-04-28T01:42:23.015Z,100.00
2023-04-28T01:44:49.713Z,100.00
2023-04-28T01:47:16.950Z,100.00
2023-04-28T01:49:43.610Z,100.00
2023-04-28T01:52:11.884Z,100.00
2023-04-28T01:54:38.800Z,100.00
2023-04-28T01:57:06.968Z,100.00
2023-04-28T01:59:33.762Z,100.00
2023-04-28T02:02:00.511Z,100.00
2023-04-28T02:04:27.441Z,100.00
2023-04-28T02:06:54.401Z,100.00
2023-04-28T02:09:21.360Z,100.00
2023-04-28T02:11:48.143Z,100.00
2023-04-28T02:14:14.921Z,100.00
2023-04-28T02:16:41.693Z,100.00
2023-04-28T02:19:08.471Z,100.00
2023-04-28T02:21:35.176Z,100.00
2023-04-28T02:24:02.148Z,100.00
2023-04-28T02:26:31.197Z,100.00
2023-04-28T02:28:57.957Z,100.00
2023-04-28T02:31:24.785Z,100.00
2023-04-28T02:33:54.512Z,100.00
2023-04-28T02:36:21.894Z,100.00
2023-04-28T02:38:48.571Z,100.00
2023-04-28T02:41:15.519Z,100.00
2023-04-28T02:43:42.499Z,100.00
2023-04-28T02:46:09.321Z,100.00
2023-04-28T02:48:37.357Z,100.00
2023-04-28T02:51:04.207Z,100.00
2023-04-28T02:53:32.087Z,100.00
2023-04-28T02:55:59.582Z,100.00
2023-04-28T02:58:26.955Z,100.00
2023-04-28T03:00:53.643Z,100.00
2023-04-28T03:03:20.650Z,100.00
2023-04-28T03:05:49.770Z,100.00
2023-04-28T03:08:16.425Z,100.00
2023-04-28T03:10:43.059Z,100.00
2023-04-28T03:13:09.775Z,100.00
2023-04-28T03:15:36.501Z,100.00
2023-04-28T03:18:03.320Z,100.00
2023-04-28T03:20:30.144Z,100.00
2023-04-28T03:22:56.854Z,100.00
2023-04-28T03:25:23.832Z,100.00
2023-04-28T03:27:51.642Z,100.00
2023-04-28T03:30:18.391Z,100.00
2023-04-28T03:32:46.464Z,100.00
2023-04-28T03:35:13.745Z,100.00
2023-04-28T03:37:41.149Z,100.00
2023-04-28T03:40:08.761Z,100.00
2023-04-28T03:42:54.385Z,100.00
2023-04-28T03:45:28.784Z,100.00
2023-04-28T03:47:55.554Z,100.00
2023-04-28T03:50:23.249Z,100.00
2023-04-28T03:52:50.963Z,100.00
2023-04-28T03:55:17.855Z,100.00
2023-04-28T03:57:44.566Z,100.00
2023-04-28T04:00:11.856Z,100.00
2023-04-28T04:02:44.675Z,100.00
2023-04-28T04:05:11.758Z,100.00
2023-04-28T04:07:38.540Z,100.00
2023-04-28T04:10:06.176Z,100.00
2023-04-28T04:12:34.622Z,100.00
2023-04-28T04:15:01.464Z,100.00
2023-04-28T04:17:28.331Z,100.00
2023-04-28T04:19:55.130Z,100.00
2023-04-28T04:22:21.867Z,100.00
2023-04-28T04:24:48.595Z,100.00
2023-04-28T04:27:15.249Z,100.00
2023-04-28T04:29:42.274Z,100.00
2023-04-28T04:32:13.207Z,100.00
2023-04-28T04:34:41.526Z,100.00
2023-04-28T04:37:09.611Z,100.00
2023-04-28T04:39:41.959Z,100.00
2023-04-28T04:42:23.253Z,100.00
2023-04-28T04:45:07.065Z,100.00
2023-04-28T04:47:33.840Z,100.00
2023-04-28T04:50:00.851Z,100.00
2023-04-28T04:52:29.174Z,100.00
2023-04-28T04:54:56.615Z,100.00
2023-04-28T04:57:24.466Z,100.00
2023-04-28T05:00:05.920Z,100.00
2023-04-28T05:02:32.900Z,100.00
2023-04-28T05:05:12.351Z,100.00
2023-04-28T05:07:48.723Z,100.00
2023-04-28T05:10:15.550Z,100.00
2023-04-28T05:12:46.224Z,100.00
2023-04-28T05:15:16.744Z,100.00
2023-04-28T05:17:51.879Z,100.00
2023-04-28T05:20:18.740Z,100.00
2023-04-28T05:22:45.437Z,100.00
2023-04-28T05:25:12.208Z,100.00
2023-04-28T05:27:40.898Z,100.00
2023-04-28T05:30:08.682Z,100.00
2023-04-28T05:32:36.411Z,100.00
2023-04-28T05:35:03.584Z,100.00
2023-04-28T05:37:30.424Z,100.00
2023-04-28T05:39:57.453Z,100.00
2023-04-28T05:42:24.097Z,100.00
2023-04-28T05:44:50.962Z,100.00
2023-04-28T05:47:17.804Z,100.00
2023-04-28T05:49:44.773Z,100.00
2023-04-28T05:52:11.577Z,100.00
2023-04-28T05:54:38.313Z,100.00
2023-04-28T05:57:05.859Z,100.00
2023-04-28T05:59:33.174Z,100.00
2023-04-28T06:02:00.653Z,100.00
2023-04-28T06:04:27.656Z,100.00
2023-04-28T06:06:54.700Z,100.00
2023-04-28T06:09:21.577Z,100.00
2023-04-28T06:11:50.850Z,100.00
2023-04-28T06:14:17.886Z,100.00
2023-04-28T06:16:44.740Z,100.00
2023-04-28T06:19:11.863Z,100.00
2023-04-28T06:21:38.596Z,100.00
2023-04-28T06:24:05.439Z,100.00
2023-04-28T06:26:32.195Z,100.00
2023-04-28T06:28:58.880Z,100.00
2023-04-28T06:31:25.660Z,100.00
2023-04-28T06:33:53.755Z,93.76
2023-04-28T06:36:22.753Z,85.59
2023-04-28T06:38:49.512Z,82.40
2023-04-28T06:41:16.216Z,79.39
2023-04-28T06:43:46.527Z,78.88
2023-04-28T06:46:18.238Z,76.86
2023-04-28T06:48:45.051Z,76.88
2023-04-28T06:51:11.745Z,74.70
2023-04-28T06:53:38.706Z,75.89
2023-04-28T06:56:10.514Z,76.87
2023-04-28T06:58:38.137Z,76.63
2023-04-28T07:01:05.735Z,75.77
2023-04-28T07:03:32.826Z,75.73
2023-04-28T07:05:59.880Z,74.83
2023-04-28T07:08:26.832Z,74.45
2023-04-28T07:10:53.448Z,73.42
2023-04-28T07:13:20.236Z,73.52
2023-04-28T07:15:46.864Z,71.39
2023-04-28T07:18:13.587Z,70.19
2023-04-28T07:20:40.299Z,69.64
2023-04-28T07:23:06.908Z,69.61
2023-04-28T07:25:33.571Z,67.37
2023-04-28T07:28:02.829Z,68.29
2023-04-28T07:30:29.515Z,67.15
2023-04-28T07:32:56.399Z,65.96
2023-04-28T07:35:23.745Z,66.79
2023-04-28T07:37:50.681Z,66.96
2023-04-28T07:40:17.894Z,66.80
2023-04-28T07:42:46.071Z,65.20
2023-04-28T07:45:12.919Z,63.44
2023-04-28T07:47:39.704Z,62.84
2023-04-28T07:50:07.676Z,61.66
2023-04-28T07:52:34.779Z,59.57
2023-04-28T07:55:03.037Z,59.45
2023-04-28T07:57:30.396Z,59.31
2023-04-28T07:59:57.042Z,60.13
2023-04-28T08:02:23.868Z,59.30
2023-04-28T08:04:50.845Z,59.13
2023-04-28T08:07:17.955Z,60.70
2023-04-28T08:09:48.406Z,59.70
2023-04-28T08:12:15.662Z,58.83
2023-04-28T08:14:42.698Z,58.97
2023-04-28T08:17:09.445Z,58.16
2023-04-28T08:19:36.107Z,56.98
2023-04-28T08:22:06.138Z,57.24
2023-04-28T08:24:36.631Z,56.49
2023-04-28T08:27:03.904Z,55.96
2023-04-28T08:29:31.953Z,54.92
2023-04-28T08:31:58.882Z,55.34
2023-04-28T08:34:25.614Z,54.95
2023-04-28T08:36:52.825Z,55.41
2023-04-28T08:39:20.742Z,54.64
2023-04-28T08:41:47.464Z,55.87
2023-04-28T08:44:14.368Z,55.56
2023-04-28T08:46:42.254Z,55.44
2023-04-28T08:49:13.990Z,55.26
2023-04-28T08:51:57.339Z,54.63
2023-04-28T08:54:29.975Z,54.45
2023-04-28T08:56:57.447Z,53.28
2023-04-28T08:59:24.421Z,53.12
2023-04-28T09:01:52.185Z,52.96
2023-04-28T09:04:20.041Z,52.28
2023-04-28T09:06:47.604Z,53.52
2023-04-28T09:09:27.545Z,52.25
2023-04-28T09:12:01.210Z,52.07
2023-04-28T09:14:29.193Z,51.22
2023-04-28T09:16:56.142Z,52.28
2023-04-28T09:19:23.099Z,52.01
2023-04-28T09:21:57.518Z,51.02
2023-04-28T09:24:27.581Z,51.22
2023-04-28T09:26:55.632Z,51.33
2023-04-28T09:29:22.844Z,51.17
2023-04-28T09:31:49.980Z,50.74
2023-04-28T09:34:16.954Z,51.20
2023-04-28T09:36:43.933Z,49.79
2023-04-28T09:39:10.671Z,50.33
2023-04-28T09:41:44.325Z,48.45
2023-04-28T09:44:15.792Z,49.42
2023-04-28T09:46:46.714Z,49.90
2023-04-28T09:49:14.346Z,50.09
2023-04-28T09:51:41.633Z,49.97
2023-04-28T09:54:08.418Z,50.19
2023-04-28T09:56:40.857Z,50.46
2023-04-28T09:59:08.277Z,50.20
2023-04-28T10:01:39.016Z,49.22
2023-04-28T10:04:07.359Z,48.84
2023-04-28T10:06:35.852Z,48.10
2023-04-28T10:09:03.324Z,47.93
2023-04-28T10:11:30.745Z,45.46
2023-04-28T10:13:57.428Z,45.12
2023-04-28T10:16:24.663Z,45.04
2023-04-28T10:18:51.555Z,45.06
2023-04-28T10:21:19.047Z,45.01
2023-04-28T10:24:00.180Z,45.15
2023-04-28T10:26:54.030Z,44.73
2023-04-28T10:29:25.361Z,44.62
2023-04-28T10:32:21.175Z,44.89
2023-04-28T10:34:48.356Z,43.77
2023-04-28T10:37:15.559Z,43.51
2023-04-28T10:40:25.019Z,42.38
2023-04-28T10:42:53.022Z,41.65
2023-04-28T10:45:56.369Z,41.85
2023-04-28T10:48:46.579Z,41.97
2023-04-28T10:51:16.508Z,41.03
2023-04-28T10:53:46.793Z,41.39
2023-04-28T10:56:25.517Z,40.73
2023-04-28T10:58:58.691Z,41.04
2023-04-28T11:01:30.937Z,41.53
2023-04-28T11:04:11.441Z,40.96
2023-04-28T11:06:40.762Z,40.85
2023-04-28T11:09:19.493Z,40.22
2023-04-28T11:11:58.619Z,40.67
2023-04-28T11:14:25.205Z,40.54
2023-04-28T11:16:52.301Z,39.77
2023-04-28T11:19:20.379Z,40.02
2023-04-28T11:21:48.353Z,40.54
2023-04-28T11:24:15.595Z,39.94
2023-04-28T11:26:42.461Z,40.11
2023-04-28T11:29:09.535Z,40.85
2023-04-28T11:31:36.766Z,40.98
2023-04-28T11:34:14.617Z,41.53
2023-04-28T11:36:41.892Z,42.49
2023-04-28T11:39:10.205Z,42.94
2023-04-28T11:41:41.738Z,42.63
2023-04-28T11:44:16.345Z,43.79
2023-04-28T11:46:50.575Z,43.99
2023-04-28T11:49:18.756Z,43.96
2023-04-28T11:51:47.016Z,45.15
2023-04-28T11:54:15.039Z,45.07
2023-04-28T11:56:42.839Z,45.52
2023-04-28T11:59:11.345Z,45.77
2023-04-28T12:01:49.053Z,46.24
2023-04-28T12:04:28.194Z,45.77
2023-04-28T12:07:13.828Z,45.64
2023-04-28T12:09:43.106Z,46.13
2023-04-28T12:12:15.482Z,46.01
2023-04-28T12:14:57.535Z,45.80
2023-04-28T12:17:35.882Z,46.30
2023-04-28T12:20:04.767Z,46.52
2023-04-28T12:22:31.481Z,46.68
2023-04-28T12:25:06.949Z,47.28
2023-04-28T12:27:35.758Z,48.49
2023-04-28T12:30:04.089Z,48.26
2023-04-28T12:32:38.797Z,48.55
2023-04-28T12:35:06.169Z,49.26
2023-04-28T12:37:32.945Z,49.63
2023-04-28T12:39:59.727Z,49.85
2023-04-28T12:42:26.979Z,49.82
2023-04-28T12:44:53.579Z,50.33
2023-04-28T12:47:20.537Z,50.22
2023-04-28T12:49:48.940Z,50.82
2023-04-28T12:52:15.562Z,50.71
2023-04-28T12:54:47.131Z,50.01
2023-04-28T12:57:15.042Z,50.45
2023-04-28T12:59:41.758Z,49.93
2023-04-28T13:02:08.570Z,50.42
2023-04-28T13:04:35.414Z,49.87
2023-04-28T13:07:02.553Z,49.90
2023-04-28T13:09:29.754Z,49.49
2023-04-28T13:11:56.951Z,48.84
2023-04-28T13:14:24.085Z,48.49
2023-04-28T13:16:51.883Z,47.92
2023-04-28T13:19:19.054Z,48.42
2023-04-28T13:21:47.148Z,47.84
2023-04-28T13:24:16.655Z,48.04
2023-04-28T13:26:46.678Z,48.03
2023-04-28T13:29:14.442Z,47.65
2023-04-28T13:31:41.598Z,47.56
2023-04-28T13:34:09.683Z,47.54
2023-04-28T13:36:36.444Z,48.15
2023-04-28T13:39:03.350Z,48.09
2023-04-28T13:41:30.024Z,48.16
2023-04-28T13:43:56.655Z,47.59
2023-04-28T13:46:23.361Z,47.92
2023-04-28T13:48:50.579Z,48.37
2023-04-28T13:51:17.410Z,48.86
2023-04-28T13:53:44.024Z,48.65
2023-04-28T13:56:10.938Z,48.85
2023-04-28T13:58:37.707Z,48.90
2023-04-28T14:01:04.552Z,49.44
2023-04-28T14:03:31.359Z,49.68
2023-04-28T14:05:59.000Z,49.28
2023-04-28T14:08:27.750Z,50.01
2023-04-28T14:10:57.207Z,50.85
2023-04-28T14:13:24.989Z,50.69
2023-04-28T14:15:59.340Z,51.69
2023-04-28T14:18:27.415Z,51.76
2023-04-28T14:20:54.584Z,52.45
2023-04-28T14:23:22.594Z,52.47
2023-04-28T14:25:50.169Z,53.10
2023-04-28T14:28:16.925Z,53.10
2023-04-28T14:30:43.997Z,54.23
2023-04-28T14:33:10.859Z,54.35
2023-04-28T14:35:37.659Z,55.67
2023-04-28T14:38:04.424Z,56.41
2023-04-28T14:40:31.386Z,57.01
2023-04-28T14:42:58.120Z,57.94
2023-04-28T14:45:25.088Z,59.06
2023-04-28T14:47:51.942Z,59.69
2023-04-28T14:50:18.835Z,60.58
2023-04-28T14:52:45.822Z,61.69
2023-04-28T14:55:13.702Z,63.25
2023-04-28T14:57:40.448Z,64.27
2023-04-28T15:00:08.158Z,65.64
2023-04-28T15:02:36.298Z,67.18
2023-04-28T15:05:03.493Z,67.69
2023-04-28T15:07:31.926Z,69.40
2023-04-28T15:09:59.643Z,70.25
2023-04-28T15:12:26.936Z,73.64
2023-04-28T15:14:53.871Z,74.15
2023-04-28T15:17:24.366Z,76.05
2023-04-28T15:19:51.686Z,76.23
2023-04-28T15:22:18.551Z,78.38
2023-04-28T15:24:45.249Z,79.42
2023-04-28T15:27:11.873Z,82.50
2023-04-28T15:29:38.766Z,83.51
2023-04-28T15:32:05.702Z,82.88
2023-04-28T15:34:32.484Z,83.49
2023-04-28T15:36:59.320Z,83.37
2023-04-28T15:39:28.522Z,85.22
2023-04-28T15:41:56.238Z,84.93
2023-04-28T15:44:23.237Z,83.91
2023-04-28T15:46:51.835Z,85.15
2023-04-28T15:49:18.567Z,84.19
2023-04-28T15:51:45.704Z,85.03
2023-04-28T15:54:14.657Z,84.92
2023-04-28T15:56:41.306Z,84.79
2023-04-28T15:59:10.310Z,84.73
2023-04-28T16:01:36.987Z,84.80
2023-04-28T16:04:03.887Z,86.36
2023-04-28T16:06:31.381Z,86.97
2023-04-28T16:08:58.060Z,87.39
2023-04-28T16:11:24.792Z,88.35
2023-04-28T16:13:51.548Z,87.79
2023-04-28T16:16:18.211Z,89.32
2023-04-28T16:18:44.911Z,90.58
2023-04-28T16:21:12.264Z,91.66
2023-04-28T16:23:38.985Z,94.00
2023-04-28T16:26:05.650Z,95.77
2023-04-28T16:28:32.890Z,98.25
2023-04-28T16:30:59.587Z,100.00
2023-04-28T16:33:26.334Z,100.00
2023-04-28T16:35:57.980Z,100.00
2023-04-28T16:38:24.721Z,100.00
2023-04-28T16:40:52.157Z,100.00
2023-04-28T16:43:18.918Z,100.00
2023-04-28T16:45:45.643Z,100.00
2023-04-28T16:48:14.814Z,100.00
2023-04-28T16:50:41.504Z,100.00
2023-04-28T16:53:08.277Z,100.00
2023-04-28T16:55:36.645Z,100.00
2023-04-28T16:58:03.768Z,100.00
2023-04-28T17:00:31.046Z,100.00
2023-04-28T17:02:57.852Z,100.00
2023-04-28T17:05:24.663Z,100.00
2023-04-28T17:07:51.361Z,100.00
2023-04-28T17:10:18.309Z,100.00
2023-04-28T17:12:45.762Z,100.00
2023-04-28T17:15:18.590Z,100.00
2023-04-28T17:17:50.232Z,100.00
2023-04-28T17:20:18.205Z,100.00
2023-04-28T17:22:44.853Z,100.00
2023-04-28T17:25:12.163Z,100.00
2023-04-28T17:27:39.034Z,100.00
2023-04-28T17:30:10.372Z,100.00
2023-04-28T17:32:37.822Z,100.00
2023-04-28T17:35:07.337Z,100.00
2023-04-28T17:37:34.925Z,100.00
2023-04-28T17:40:04.890Z,100.00
2023-04-28T17:42:32.036Z,100.00
2023-04-28T17:44:58.898Z,100.00
2023-04-28T17:47:25.771Z,100.00
2023-04-28T17:49:52.469Z,100.00
2023-04-28T17:52:19.140Z,100.00
2023-04-28T17:54:45.840Z,100.00
2023-04-28T17:57:13.240Z,100.00
2023-04-28T17:59:40.664Z,100.00
2023-04-28T18:02:11.288Z,100.00
2023-04-28T18:04:38.445Z,100.00
2023-04-28T18:07:06.465Z,100.00
2023-04-28T18:09:33.410Z,100.00
2023-04-28T18:12:02.328Z,100.00
2023-04-28T18:14:28.974Z,100.00
2023-04-28T18:16:55.608Z,100.00
2023-04-28T18:19:22.459Z,100.00
2023-04-28T18:21:49.172Z,100.00
2023-04-28T18:24:15.832Z,100.00
2023-04-28T18:26:42.692Z,100.00
2023-04-28T18:29:09.379Z,100.00
2023-04-28T18:31:36.115Z,100.00
2023-04-28T18:34:03.957Z,100.00
2023-04-28T18:36:33.521Z,100.00
2023-04-28T18:39:02.435Z,100.00
2023-04-28T18:41:29.080Z,100.00
2023-04-28T18:43:58.292Z,100.00
2023-04-28T18:46:29.518Z,100.00
2023-04-28T18:48:56.540Z,100.00
2023-04-28T18:51:23.232Z,100.00
2023-04-28T18:53:50.037Z,100.00
2023-04-28T18:56:17.326Z,100.00
2023-04-28T18:58:44.041Z,100.00
2023-04-28T19:01:17.329Z,100.00
2023-04-28T19:03:44.875Z,100.00
2023-04-28T19:06:12.112Z,100.00
2023-04-28T19:08:39.249Z,100.00
2023-04-28T19:11:09.622Z,100.00
2023-04-28T19:13:37.532Z,100.00
2023-04-28T19:16:04.820Z,100.00
2023-04-28T19:18:32.380Z,100.00
2023-04-28T19:21:03.093Z,100.00
2023-04-28T19:23:30.538Z,100.00
2023-04-28T19:25:58.513Z,100.00
2023-04-28T19:28:29.027Z,100.00
2023-04-28T19:30:57.269Z,100.00
2023-04-28T19:33:27.774Z,100.00
2023-04-28T19:35:54.864Z,100.00
2023-04-28T19:38:23.203Z,100.00
2023-04-28T19:40:51.030Z,100.00
2023-04-28T19:43:18.271Z,100.00
2023-04-28T19:45:46.768Z,100.00
2023-04-28T19:48:14.663Z,100.00
2023-04-28T19:50:42.286Z,100.00
2023-04-28T19:53:11.867Z,100.00
2023-04-28T19:55:38.820Z,100.00
2023-04-28T19:58:06.955Z,100.00
2023-04-28T20:00:34.155Z,100.00
2023-04-28T20:03:01.040Z,100.00
2023-04-28T20:05:28.928Z,100.00
2023-04-28T20:07:56.479Z,100.00
2023-04-28T20:10:23.907Z,100.00
2023-04-28T20:12:50.841Z,100.00
2023-04-28T20:15:18.517Z,100.00
2023-04-28T20:17:46.278Z,100.00
2023-04-28T20:20:13.437Z,100.00
2023-04-28T20:22:41.203Z,100.00
2023-04-28T20:25:10.382Z,100.00
2023-04-28T20:27:37.226Z,100.00
2023-04-28T20:30:04.665Z,100.00
2023-04-28T20:32:31.346Z,100.00
2023-04-28T20:34:58.002Z,100.00
2023-04-28T20:37:26.434Z,100.00
2023-04-28T20:39:53.464Z,100.00
2023-04-28T20:42:20.195Z,100.00
2023-04-28T20:44:46.807Z,100.00
2023-04-28T20:47:13.974Z,100.00
2023-04-28T20:49:40.664Z,100.00
2023-04-28T20:52:07.334Z,100.00
2023-04-28T20:54:36.037Z,100.00
2023-04-28T20:57:04.801Z,100.00
2023-04-28T20:59:32.739Z,100.00
2023-04-28T21:01:59.805Z,100.00
2023-04-28T21:04:26.759Z,100.00
2023-04-28T21:06:53.477Z,100.00
2023-04-28T21:09:20.890Z,100.00
2023-04-28T21:11:48.104Z,100.00
2023-04-28T21:14:15.445Z,100.00
2023-04-28T21:16:43.573Z,100.00
2023-04-28T21:19:10.912Z,100.00
2023-04-28T21:21:40.158Z,100.00
2023-04-28T21:24:08.266Z,100.00
2023-04-28T21:26:35.993Z,100.00
2023-04-28T21:29:02.940Z,100.00
2023-04-28T21:31:30.758Z,100.00
2023-04-28T21:33:57.646Z,100.00
2023-04-28T21:36:24.390Z,100.00
2023-04-28T21:38:51.063Z,100.00
2023-04-28T21:41:17.799Z,100.00
2023-04-28T21:43:44.491Z,100.00
2023-04-28T21:46:11.497Z,100.00
2023-04-28T21:48:38.613Z,100.00
2023-04-28T21:51:05.569Z,100.00
2023-04-28T21:53:32.325Z,100.00
2023-04-28T21:55:59.099Z,100.00
2023-04-28T21:58:25.713Z,100.00
2023-04-28T22:00:52.490Z,100.00
2023-04-28T22:03:19.878Z,100.00
2023-04-28T22:05:46.946Z,100.00
2023-04-28T22:08:14.664Z,100.00
2023-04-28T22:10:45.446Z,100.00
2023-04-28T22:13:12.969Z,100.00
2023-04-28T22:15:39.741Z,100.00
2023-04-28T22:18:07.814Z,100.00
2023-04-28T22:20:34.502Z,100.00
2023-04-28T22:23:01.182Z,100.00
2023-04-28T22:25:27.826Z,100.00
2023-04-28T22:27:54.507Z,100.00
2023-04-28T22:30:25.818Z,100.00
2023-04-28T22:32:53.061Z,100.00
2023-04-28T22:35:19.871Z,100.00
2023-04-28T22:37:46.632Z,100.00
2023-04-28T22:40:13.904Z,100.00
2023-04-28T22:42:41.742Z,100.00
2023-04-28T22:45:10.250Z,100.00
2023-04-28T22:47:38.614Z,100.00
2023-04-28T22:50:06.489Z,100.00
2023-04-28T22:52:34.105Z,100.00
2023-04-28T22:55:00.948Z,100.00
2023-04-28T22:57:27.855Z,100.00
2023-04-28T22:59:55.001Z,100.00
2023-04-28T23:02:22.816Z,100.00
2023-04-28T23:04:50.031Z,100.00
2023-04-28T23:07:17.065Z,100.00
2023-04-28T23:09:43.735Z,100.00
2023-04-28T23:12:10.450Z,100.00
2023-04-28T23:14:37.182Z,100.00
2023-04-28T23:17:03.872Z,100.00
2023-04-28T23:19:30.574Z,100.00
2023-04-28T23:21:58.091Z,100.00
2023-04-28T23:24:26.634Z,100.00
2023-04-28T23:26:53.284Z,100.00
2023-04-28T23:29:19.850Z,100.00
2023-04-28T23:31:52.393Z,100.00
2023-04-28T23:34:19.348Z,100.00
2023-04-28T23:36:45.963Z,100.00
2023-04-28T23:39:12.648Z,100.00
2023-04-28T23:41:39.292Z,100.00
2023-04-28T23:44:05.951Z,100.00
2023-04-28T23:46:33.927Z,100.00
2023-04-28T23:49:00.765Z,100.00
2023-04-28T23:51:27.375Z,100.00
2023-04-28T23:53:54.023Z,100.00
2023-04-28T23:56:20.772Z,100.00
2023-04-28T23:58:47.474Z,100.00
